createdAt,value
2018-07-04T00:04:08.783Z,99.60
2018-07-04T00:09:24.874Z,99.60
2018-07-04T00:14:40.558Z,99.60
2018-07-04T00:19:56.074Z,99.60
2018-07-04T00:25:12.065Z,99.60
2018-07-04T00:30:27.844Z,99.60
2018-07-04T00:35:43.538Z,99.60
2018-07-04T00:40:58.979Z,99.60
2018-07-04T00:46:14.629Z,99.60
2018-07-04T00:51:30.315Z,99.60
2018-07-04T00:56:45.886Z,99.60
2018-07-04T01:02:01.359Z,99.60
2018-07-04T01:07:17.077Z,99.60
2018-07-04T01:12:32.694Z,99.60
2018-07-04T01:17:48.570Z,99.60
2018-07-04T01:23:04.470Z,99.60
2018-07-04T01:28:20.223Z,99.60
2018-07-04T01:33:36.050Z,99.60
2018-07-04T01:38:51.512Z,99.60
2018-07-04T01:44:07.224Z,99.60
2018-07-04T01:49:22.821Z,99.60
2018-07-04T01:54:38.516Z,99.60
2018-07-04T01:59:54.301Z,99.60
2018-07-04T02:05:10.002Z,99.60
2018-07-04T02:10:25.602Z,99.60
2018-07-04T02:15:41.269Z,99.60
2018-07-04T02:20:57.071Z,99.60
2018-07-04T02:26:12.654Z,99.60
2018-07-04T02:31:28.364Z,99.60
2018-07-04T02:36:44.261Z,99.60
2018-07-04T02:42:00.179Z,99.60
2018-07-04T02:47:21.126Z,99.60
2018-07-04T02:52:36.869Z,99.60
2018-07-04T02:57:52.567Z,99.60
2018-07-04T03:03:07.987Z,99.60
2018-07-04T03:08:23.952Z,99.60
2018-07-04T03:13:39.762Z,99.60
2018-07-04T03:18:55.376Z,99.60
2018-07-04T03:24:11.143Z,99.60
2018-07-04T03:29:26.838Z,99.60
2018-07-04T03:39:52.108Z,99.60
2018-07-04T03:45:08.117Z,99.60
2018-07-04T03:50:23.652Z,99.60
2018-07-04T03:55:39.322Z,99.60
2018-07-04T04:00:55.302Z,99.60
2018-07-04T04:06:10.944Z,99.60
2018-07-04T04:11:27.448Z,99.60
2018-07-04T04:16:43.240Z,99.60
2018-07-04T04:21:58.848Z,99.60
2018-07-04T04:27:14.727Z,99.60
2018-07-04T04:32:30.451Z,99.60
2018-07-04T04:37:45.896Z,99.60
2018-07-04T04:43:01.809Z,99.60
2018-07-04T04:48:17.503Z,99.60
2018-07-04T04:53:33.498Z,99.60
2018-07-04T04:58:48.972Z,99.60
2018-07-04T05:04:04.686Z,99.60
2018-07-04T05:09:20.569Z,99.60
2018-07-04T05:14:36.288Z,99.60
2018-07-04T05:25:01.515Z,99.60
2018-07-04T05:30:17.319Z,99.60
2018-07-04T05:35:33.116Z,99.60
2018-07-04T05:45:58.572Z,99.60
2018-07-04T05:51:14.350Z,99.60
2018-07-04T05:56:30.051Z,99.60
2018-07-04T06:01:45.962Z,99.60
2018-07-04T06:07:01.741Z,99.60
2018-07-04T06:12:17.621Z,99.60
2018-07-04T06:17:33.241Z,99.60
2018-07-04T06:22:49.115Z,99.60
2018-07-04T06:28:04.806Z,99.60
2018-07-04T06:33:20.483Z,99.60
2018-07-04T06:38:23.928Z,99.60
2018-07-04T06:43:28.361Z,99.60
2018-07-04T06:48:31.558Z,99.60
2018-07-04T06:53:37.001Z,99.60
2018-07-04T06:58:40.246Z,99.60
2018-07-04T07:03:56.026Z,99.60
2018-07-04T07:09:12.042Z,99.60
2018-07-04T07:14:28.315Z,99.60
2018-07-04T07:19:43.922Z,99.60
2018-07-04T07:24:59.927Z,99.60
2018-07-04T07:30:15.820Z,99.60
2018-07-04T07:40:41.026Z,99.30
2018-07-04T07:45:56.638Z,98.20
2018-07-04T07:51:12.862Z,97.00
2018-07-04T07:56:28.510Z,95.50
2018-07-04T08:01:44.138Z,92.90
2018-07-04T08:06:59.925Z,90.00
2018-07-04T08:12:15.304Z,92.20
2018-07-04T08:17:30.791Z,90.70
2018-07-04T08:22:46.596Z,90.70
2018-07-04T08:28:02.904Z,91.30
2018-07-04T08:33:18.568Z,89.00
2018-07-04T08:38:34.270Z,89.80
2018-07-04T08:43:49.893Z,88.80
2018-07-04T08:49:05.881Z,87.00
2018-07-04T08:54:21.670Z,87.20
2018-07-04T08:59:37.263Z,88.90
2018-07-04T09:04:53.055Z,87.50
2018-07-04T09:10:08.876Z,87.30
2018-07-04T09:15:24.441Z,88.30
2018-07-04T09:20:40.356Z,87.30
2018-07-04T09:25:56.221Z,85.90
2018-07-04T09:31:12.040Z,86.70
2018-07-04T09:36:27.695Z,86.50
2018-07-04T09:41:43.616Z,83.70
2018-07-04T09:46:59.258Z,85.50
2018-07-04T09:52:15.084Z,84.90
2018-07-04T09:57:30.885Z,85.50
2018-07-04T10:02:46.802Z,85.90
2018-07-04T10:08:02.509Z,85.00
2018-07-04T10:13:18.181Z,84.40
2018-07-04T10:18:33.866Z,84.70
2018-07-04T10:23:49.646Z,83.10
2018-07-04T10:29:05.355Z,83.10
2018-07-04T10:34:21.206Z,82.80
2018-07-04T10:39:37.432Z,83.30
2018-07-04T10:44:53.253Z,83.70
2018-07-04T10:50:10.681Z,84.10
2018-07-04T10:55:26.207Z,85.30
2018-07-04T11:00:41.900Z,85.60
2018-07-04T11:05:57.871Z,84.60
2018-07-04T11:16:23.231Z,81.70
2018-07-04T11:21:38.891Z,82.20
2018-07-04T11:26:54.374Z,81.70
2018-07-04T11:32:10.403Z,81.40
2018-07-04T11:37:26.183Z,81.70
2018-07-04T11:47:39.264Z,89.50
2018-07-04T11:52:42.430Z,89.70
2018-07-04T11:57:45.866Z,90.40
2018-07-04T12:02:48.979Z,91.00
2018-07-04T12:07:52.260Z,90.40
2018-07-04T12:12:55.465Z,88.30
2018-07-04T12:23:02.249Z,88.20
2018-07-04T12:28:05.459Z,87.10
2018-07-04T12:33:08.737Z,86.30
2018-07-04T12:38:12.077Z,86.40
2018-07-04T12:43:15.217Z,86.10
2018-07-04T12:48:18.578Z,85.00
2018-07-04T12:53:21.874Z,86.90
2018-07-04T12:58:37.431Z,85.30
2018-07-04T13:03:52.926Z,78.10
2018-07-04T13:09:08.628Z,72.50
2018-07-04T13:14:24.206Z,67.30
2018-07-04T13:19:39.753Z,67.60
2018-07-04T13:24:55.286Z,71.00
2018-07-04T13:30:11.202Z,74.10
2018-07-04T13:35:26.809Z,74.90
2018-07-04T13:40:42.687Z,75.10
2018-07-04T13:45:58.600Z,79.40
2018-07-04T13:51:14.389Z,81.00
2018-07-04T14:01:39.532Z,68.30
2018-07-04T14:06:55.286Z,64.60
2018-07-04T14:12:10.879Z,70.40
2018-07-04T14:17:26.714Z,72.30
2018-07-04T14:22:42.612Z,71.20
2018-07-04T14:27:58.398Z,68.10
2018-07-04T14:33:14.223Z,68.20
2018-07-04T14:38:29.963Z,64.70
2018-07-04T14:43:45.661Z,63.70
2018-07-04T14:49:01.671Z,65.70
2018-07-04T14:54:18.591Z,71.90
2018-07-04T14:59:34.404Z,74.00
2018-07-04T15:04:50.304Z,74.60
2018-07-04T15:10:05.724Z,70.30
2018-07-04T15:15:21.454Z,67.40
2018-07-04T15:20:37.185Z,64.30
2018-07-04T15:25:52.665Z,62.80
2018-07-04T15:31:08.537Z,62.60
2018-07-04T15:36:24.642Z,62.10
2018-07-04T15:41:40.303Z,63.20
2018-07-04T15:46:55.842Z,60.70
2018-07-04T15:52:11.596Z,60.80
2018-07-04T15:57:27.417Z,58.40
2018-07-04T16:02:43.123Z,60.40
2018-07-04T16:07:58.878Z,57.90
2018-07-04T16:13:14.775Z,57.20
2018-07-04T16:18:30.793Z,55.90
2018-07-04T16:23:46.461Z,57.10
2018-07-04T16:29:02.489Z,58.00
2018-07-04T16:34:17.952Z,58.50
2018-07-04T16:39:34.787Z,57.50
2018-07-04T16:44:50.356Z,59.40
2018-07-04T16:50:06.569Z,59.50
2018-07-04T16:55:22.148Z,60.10
2018-07-04T17:00:37.993Z,62.60
2018-07-04T17:05:54.914Z,66.90
2018-07-04T17:11:10.476Z,70.50
2018-07-04T17:16:27.377Z,71.30
2018-07-04T17:21:42.973Z,71.20
2018-07-04T17:26:58.786Z,72.00
2018-07-04T17:32:14.686Z,71.80
2018-07-04T17:37:30.247Z,72.40
2018-07-04T17:42:45.876Z,73.30
2018-07-04T17:48:01.560Z,74.80
2018-07-04T17:53:17.252Z,75.60
2018-07-04T17:58:33.150Z,75.30
2018-07-04T18:03:48.857Z,74.50
2018-07-04T18:09:04.864Z,73.60
2018-07-04T18:14:20.670Z,73.60
2018-07-04T18:19:36.292Z,73.80
2018-07-04T18:24:51.781Z,74.80
2018-07-04T18:30:07.388Z,75.00
2018-07-04T18:35:23.208Z,75.90
2018-07-04T18:45:48.228Z,77.10
2018-07-04T18:51:04.015Z,77.10
2018-07-04T18:56:19.746Z,80.20
2018-07-04T19:01:35.207Z,84.00
2018-07-04T19:06:51.621Z,84.50
2018-07-04T19:17:16.758Z,88.60
2018-07-04T19:27:42.135Z,88.60
2018-07-04T19:32:57.699Z,89.50
2018-07-04T19:38:13.384Z,89.00
2018-07-04T19:43:29.102Z,88.60
2018-07-04T19:48:44.723Z,88.50
2018-07-04T19:54:00.787Z,89.20
2018-07-04T19:59:16.458Z,89.30
2018-07-04T20:04:32.295Z,90.60
2018-07-04T20:09:47.945Z,89.90
2018-07-04T20:15:03.547Z,90.20
2018-07-04T20:20:19.934Z,90.50
2018-07-04T20:25:36.165Z,92.10
2018-07-04T20:36:01.495Z,94.10
2018-07-04T20:41:17.293Z,94.70
2018-07-04T20:46:32.990Z,95.30
2018-07-04T20:51:48.763Z,96.10
2018-07-04T20:57:04.608Z,96.30
2018-07-04T21:02:20.499Z,96.30
2018-07-04T21:07:36.289Z,97.00
2018-07-04T21:12:52.159Z,98.00
2018-07-04T21:18:07.953Z,98.90
2018-07-04T21:23:25.038Z,99.60
2018-07-04T21:28:40.472Z,99.60
2018-07-04T21:33:56.364Z,99.60
2018-07-04T21:39:12.156Z,99.60
2018-07-04T21:44:28.075Z,99.60
2018-07-04T21:49:43.674Z,99.60
2018-07-04T21:54:59.651Z,99.60
2018-07-04T22:00:19.290Z,99.60
2018-07-04T22:05:35.234Z,99.60
2018-07-04T22:10:51.025Z,99.60
2018-07-04T22:16:06.520Z,99.60
2018-07-04T22:26:31.854Z,99.60
2018-07-04T22:31:47.657Z,99.60
2018-07-04T22:37:03.184Z,99.60
2018-07-04T22:42:19.141Z,99.60
2018-07-04T22:47:34.810Z,99.60
2018-07-04T22:52:50.634Z,99.60
2018-07-04T22:58:06.188Z,99.60
2018-07-04T23:03:21.783Z,99.60
2018-07-04T23:08:37.393Z,99.60
2018-07-04T23:19:02.736Z,99.60
2018-07-04T23:24:18.538Z,99.60
2018-07-04T23:29:34.329Z,99.60
2018-07-04T23:34:49.935Z,99.60
2018-07-04T23:40:05.720Z,99.60
2018-07-04T23:45:21.226Z,99.60
2018-07-04T23:50:36.796Z,99.60
2018-07-04T23:55:52.817Z,99.60
